sensor_id;sensor_type;location;lat;lon;timestamp;P1;durP1;ratioP1;P2;durP2;ratioP2
67092;SDS011;54011;50.772;7.730;2022-12-05T00:00:31;29.92;;;12.40;;
67092;SDS011;54011;50.772;7.730;2022-12-05T00:02:57;26.60;;;11.93;;
67092;SDS011;54011;50.772;7.730;2022-12-05T00:05:39;29.27;;;13.15;;
67092;SDS011;54011;50.772;7.730;2022-12-05T00:16:30;22.50;;;11.43;;
67092;SDS011;54011;50.772;7.730;2022-12-05T00:19:17;24.77;;;10.90;;
67092;SDS011;54011;50.772;7.730;2022-12-05T00:22:05;19.05;;;10.40;;
67092;SDS011;54011;50.772;7.730;2022-12-05T00:24:30;21.55;;;10.63;;
67092;SDS011;54011;50.772;7.730;2022-12-05T00:26:56;20.83;;;10.32;;
67092;SDS011;54011;50.772;7.730;2022-12-05T00:29:21;20.80;;;10.07;;
67092;SDS011;54011;50.772;7.730;2022-12-05T00:31:46;22.95;;;10.70;;
67092;SDS011;54011;50.772;7.730;2022-12-05T00:34:12;24.00;;;10.77;;
67092;SDS011;54011;50.772;7.730;2022-12-05T00:36:38;22.80;;;10.98;;
67092;SDS011;54011;50.772;7.730;2022-12-05T00:39:05;23.67;;;11.13;;
67092;SDS011;54011;50.772;7.730;2022-12-05T00:41:33;20.02;;;10.43;;
67092;SDS011;54011;50.772;7.730;2022-12-05T00:44:00;21.15;;;10.35;;
67092;SDS011;54011;50.772;7.730;2022-12-05T00:46:27;23.35;;;10.95;;
67092;SDS011;54011;50.772;7.730;2022-12-05T00:48:55;23.08;;;10.98;;
67092;SDS011;54011;50.772;7.730;2022-12-05T00:51:23;22.95;;;10.65;;
67092;SDS011;54011;50.772;7.730;2022-12-05T00:53:54;21.77;;;10.70;;
67092;SDS011;54011;50.772;7.730;2022-12-05T00:56:22;20.77;;;10.60;;
67092;SDS011;54011;50.772;7.730;2022-12-05T00:58:49;21.95;;;10.40;;
67092;SDS011;54011;50.772;7.730;2022-12-05T01:01:23;22.67;;;10.55;;
67092;SDS011;54011;50.772;7.730;2022-12-05T01:03:50;23.95;;;10.35;;
67092;SDS011;54011;50.772;7.730;2022-12-05T01:06:17;22.95;;;9.95;;
67092;SDS011;54011;50.772;7.730;2022-12-05T01:08:43;24.88;;;10.88;;
67092;SDS011;54011;50.772;7.730;2022-12-05T01:11:08;21.83;;;10.88;;
67092;SDS011;54011;50.772;7.730;2022-12-05T01:13:34;20.15;;;10.02;;
67092;SDS011;54011;50.772;7.730;2022-12-05T01:16:00;23.55;;;9.75;;
67092;SDS011;54011;50.772;7.730;2022-12-05T01:18:27;24.40;;;10.05;;
67092;SDS011;54011;50.772;7.730;2022-12-05T01:20:53;20.17;;;9.82;;
67092;SDS011;54011;50.772;7.730;2022-12-05T01:23:19;21.80;;;10.85;;
67092;SDS011;54011;50.772;7.730;2022-12-05T01:25:46;20.23;;;10.15;;
67092;SDS011;54011;50.772;7.730;2022-12-05T01:28:14;24.80;;;11.38;;
67092;SDS011;54011;50.772;7.730;2022-12-05T01:30:43;26.25;;;11.02;;
67092;SDS011;54011;50.772;7.730;2022-12-05T01:33:10;20.30;;;10.32;;
67092;SDS011;54011;50.772;7.730;2022-12-05T01:35:37;23.75;;;11.05;;
67092;SDS011;54011;50.772;7.730;2022-12-05T01:38:04;25.95;;;11.00;;
67092;SDS011;54011;50.772;7.730;2022-12-05T01:40:31;28.38;;;12.48;;
67092;SDS011;54011;50.772;7.730;2022-12-05T01:42:58;22.42;;;11.13;;
67092;SDS011;54011;50.772;7.730;2022-12-05T01:45:34;26.83;;;11.93;;
67092;SDS011;54011;50.772;7.730;2022-12-05T01:48:02;23.85;;;10.13;;
67092;SDS011;54011;50.772;7.730;2022-12-05T01:50:32;23.48;;;10.32;;
67092;SDS011;54011;50.772;7.730;2022-12-05T01:52:59;21.55;;;11.80;;
67092;SDS011;54011;50.772;7.730;2022-12-05T01:55:25;25.05;;;11.95;;
67092;SDS011;54011;50.772;7.730;2022-12-05T01:57:51;25.58;;;11.48;;
67092;SDS011;54011;50.772;7.730;2022-12-05T02:00:18;26.75;;;12.05;;
67092;SDS011;54011;50.772;7.730;2022-12-05T02:02:47;24.60;;;11.35;;
67092;SDS011;54011;50.772;7.730;2022-12-05T02:05:21;25.52;;;11.52;;
67092;SDS011;54011;50.772;7.730;2022-12-05T02:07:51;25.00;;;12.32;;
67092;SDS011;54011;50.772;7.730;2022-12-05T02:10:17;25.23;;;11.93;;
67092;SDS011;54011;50.772;7.730;2022-12-05T02:12:43;23.85;;;11.57;;
67092;SDS011;54011;50.772;7.730;2022-12-05T02:15:27;25.80;;;12.32;;
67092;SDS011;54011;50.772;7.730;2022-12-05T02:18:14;29.25;;;13.48;;
67092;SDS011;54011;50.772;7.730;2022-12-05T02:32:46;23.70;;;11.48;;
67092;SDS011;54011;50.772;7.730;2022-12-05T02:35:17;22.10;;;11.32;;
67092;SDS011;54011;50.772;7.730;2022-12-05T02:38:11;21.13;;;11.02;;
67092;SDS011;54011;50.772;7.730;2022-12-05T02:44:03;22.20;;;10.32;;
67092;SDS011;54011;50.772;7.730;2022-12-05T02:46:36;24.23;;;10.88;;
67092;SDS011;54011;50.772;7.730;2022-12-05T02:49:05;27.95;;;12.27;;
67092;SDS011;54011;50.772;7.730;2022-12-05T02:51:35;43.20;;;10.27;;
67092;SDS011;54011;50.772;7.730;2022-12-05T02:54:07;21.42;;;9.55;;
67092;SDS011;54011;50.772;7.730;2022-12-05T02:56:35;17.48;;;9.55;;
67092;SDS011;54011;50.772;7.730;2022-12-05T02:59:02;26.67;;;9.55;;
67092;SDS011;54011;50.772;7.730;2022-12-05T03:01:27;25.88;;;9.45;;
67092;SDS011;54011;50.772;7.730;2022-12-05T03:03:55;17.40;;;8.60;;
67092;SDS011;54011;50.772;7.730;2022-12-05T03:06:25;14.65;;;7.97;;
67092;SDS011;54011;50.772;7.730;2022-12-05T03:09:06;20.55;;;9.88;;
67092;SDS011;54011;50.772;7.730;2022-12-05T03:14:21;17.83;;;9.02;;
67092;SDS011;54011;50.772;7.730;2022-12-05T03:16:50;19.98;;;9.55;;
67092;SDS011;54011;50.772;7.730;2022-12-05T03:20:19;19.20;;;9.55;;
67092;SDS011;54011;50.772;7.730;2022-12-05T03:22:29;20.00;;;9.68;;
67092;SDS011;54011;50.772;7.730;2022-12-05T03:24:57;22.25;;;10.15;;
67092;SDS011;54011;50.772;7.730;2022-12-05T03:27:41;21.13;;;9.98;;
67092;SDS011;54011;50.772;7.730;2022-12-05T03:30:15;19.17;;;9.57;;
67092;SDS011;54011;50.772;7.730;2022-12-05T03:38:07;23.92;;;10.50;;
67092;SDS011;54011;50.772;7.730;2022-12-05T03:40:41;58.20;;;11.15;;
67092;SDS011;54011;50.772;7.730;2022-12-05T03:46:04;27.17;;;10.20;;
67092;SDS011;54011;50.772;7.730;2022-12-05T03:48:37;16.50;;;8.68;;
67092;SDS011;54011;50.772;7.730;2022-12-05T03:51:11;18.90;;;9.32;;
67092;SDS011;54011;50.772;7.730;2022-12-05T03:56:39;17.65;;;8.85;;
67092;SDS011;54011;50.772;7.730;2022-12-05T04:01:49;19.27;;;9.07;;
67092;SDS011;54011;50.772;7.730;2022-12-05T04:04:19;15.00;;;8.15;;
67092;SDS011;54011;50.772;7.730;2022-12-05T04:06:55;32.33;;;8.40;;
67092;SDS011;54011;50.772;7.730;2022-12-05T04:12:01;37.88;;;7.88;;
67092;SDS011;54011;50.772;7.730;2022-12-05T04:14:39;19.05;;;9.00;;
67092;SDS011;54011;50.772;7.730;2022-12-05T04:19:56;19.35;;;9.40;;
67092;SDS011;54011;50.772;7.730;2022-12-05T04:22:46;18.65;;;9.63;;
67092;SDS011;54011;50.772;7.730;2022-12-05T04:25:13;22.05;;;10.50;;
67092;SDS011;54011;50.772;7.730;2022-12-05T04:31:09;18.75;;;9.32;;
67092;SDS011;54011;50.772;7.730;2022-12-05T04:33:41;18.38;;;9.00;;
67092;SDS011;54011;50.772;7.730;2022-12-05T04:36:18;16.38;;;9.13;;
67092;SDS011;54011;50.772;7.730;2022-12-05T04:38:57;21.48;;;10.35;;
67092;SDS011;54011;50.772;7.730;2022-12-05T04:41:38;18.90;;;9.65;;
67092;SDS011;54011;50.772;7.730;2022-12-05T04:44:10;19.10;;;10.43;;
67092;SDS011;54011;50.772;7.730;2022-12-05T04:46:40;20.73;;;10.50;;
67092;SDS011;54011;50.772;7.730;2022-12-05T04:49:09;21.27;;;11.05;;
67092;SDS011;54011;50.772;7.730;2022-12-05T04:51:39;20.48;;;10.95;;
67092;SDS011;54011;50.772;7.730;2022-12-05T04:54:08;25.33;;;10.82;;
67092;SDS011;54011;50.772;7.730;2022-12-05T04:56:41;20.02;;;11.07;;
67092;SDS011;54011;50.772;7.730;2022-12-05T04:59:10;26.83;;;11.50;;
67092;SDS011;54011;50.772;7.730;2022-12-05T05:04:12;22.67;;;11.85;;
67092;SDS011;54011;50.772;7.730;2022-12-05T05:06:41;22.50;;;11.15;;
67092;SDS011;54011;50.772;7.730;2022-12-05T05:09:08;23.38;;;11.85;;
67092;SDS011;54011;50.772;7.730;2022-12-05T05:11:34;21.45;;;10.43;;
67092;SDS011;54011;50.772;7.730;2022-12-05T05:14:01;20.77;;;11.23;;
67092;SDS011;54011;50.772;7.730;2022-12-05T05:16:28;24.00;;;11.88;;
67092;SDS011;54011;50.772;7.730;2022-12-05T05:18:55;21.45;;;10.77;;
67092;SDS011;54011;50.772;7.730;2022-12-05T05:21:22;26.92;;;12.02;;
67092;SDS011;54011;50.772;7.730;2022-12-05T05:23:53;23.52;;;11.70;;
67092;SDS011;54011;50.772;7.730;2022-12-05T05:26:19;24.23;;;12.15;;
67092;SDS011;54011;50.772;7.730;2022-12-05T05:28:45;24.40;;;10.95;;
67092;SDS011;54011;50.772;7.730;2022-12-05T05:31:10;21.52;;;10.68;;
67092;SDS011;54011;50.772;7.730;2022-12-05T05:33:36;21.90;;;11.50;;
67092;SDS011;54011;50.772;7.730;2022-12-05T05:36:05;18.90;;;10.07;;
67092;SDS011;54011;50.772;7.730;2022-12-05T05:38:36;22.35;;;10.73;;
67092;SDS011;54011;50.772;7.730;2022-12-05T05:41:04;17.33;;;9.57;;
67092;SDS011;54011;50.772;7.730;2022-12-05T05:43:30;21.83;;;10.88;;
67092;SDS011;54011;50.772;7.730;2022-12-05T05:45:57;19.92;;;10.82;;
67092;SDS011;54011;50.772;7.730;2022-12-05T05:48:22;20.02;;;10.45;;
67092;SDS011;54011;50.772;7.730;2022-12-05T05:50:48;25.05;;;10.82;;
67092;SDS011;54011;50.772;7.730;2022-12-05T05:53:15;23.40;;;10.60;;
67092;SDS011;54011;50.772;7.730;2022-12-05T05:55:40;26.02;;;11.52;;
67092;SDS011;54011;50.772;7.730;2022-12-05T05:58:06;25.20;;;10.68;;
67092;SDS011;54011;50.772;7.730;2022-12-05T06:00:32;23.15;;;12.20;;
67092;SDS011;54011;50.772;7.730;2022-12-05T06:02:58;23.98;;;10.98;;
67092;SDS011;54011;50.772;7.730;2022-12-05T06:05:23;26.77;;;11.43;;
67092;SDS011;54011;50.772;7.730;2022-12-05T06:07:51;27.48;;;12.07;;
67092;SDS011;54011;50.772;7.730;2022-12-05T06:10:17;28.48;;;11.13;;
67092;SDS011;54011;50.772;7.730;2022-12-05T06:12:43;18.65;;;9.23;;
67092;SDS011;54011;50.772;7.730;2022-12-05T06:15:09;20.23;;;9.98;;
67092;SDS011;54011;50.772;7.730;2022-12-05T06:17:35;26.35;;;11.07;;
67092;SDS011;54011;50.772;7.730;2022-12-05T06:20:03;23.75;;;11.00;;
67092;SDS011;54011;50.772;7.730;2022-12-05T06:22:32;27.75;;;11.55;;
67092;SDS011;54011;50.772;7.730;2022-12-05T06:24:58;24.80;;;11.25;;
67092;SDS011;54011;50.772;7.730;2022-12-05T06:27:23;26.60;;;11.75;;
67092;SDS011;54011;50.772;7.730;2022-12-05T06:29:49;26.08;;;10.75;;
67092;SDS011;54011;50.772;7.730;2022-12-05T06:32:14;23.45;;;10.70;;
67092;SDS011;54011;50.772;7.730;2022-12-05T06:34:40;21.65;;;10.38;;
67092;SDS011;54011;50.772;7.730;2022-12-05T06:37:06;34.00;;;15.40;;
67092;SDS011;54011;50.772;7.730;2022-12-05T06:39:32;26.58;;;13.60;;
67092;SDS011;54011;50.772;7.730;2022-12-05T06:41:58;27.05;;;12.93;;
67092;SDS011;54011;50.772;7.730;2022-12-05T06:44:24;19.35;;;9.77;;
67092;SDS011;54011;50.772;7.730;2022-12-05T06:46:51;17.75;;;9.65;;
67092;SDS011;54011;50.772;7.730;2022-12-05T06:49:18;19.17;;;9.52;;
67092;SDS011;54011;50.772;7.730;2022-12-05T06:51:44;18.20;;;9.35;;
67092;SDS011;54011;50.772;7.730;2022-12-05T06:54:10;21.00;;;10.00;;
67092;SDS011;54011;50.772;7.730;2022-12-05T06:56:36;21.30;;;10.32;;
67092;SDS011;54011;50.772;7.730;2022-12-05T06:59:02;18.35;;;9.20;;
67092;SDS011;54011;50.772;7.730;2022-12-05T07:01:27;17.55;;;9.50;;
67092;SDS011;54011;50.772;7.730;2022-12-05T07:04:13;19.17;;;9.63;;
67092;SDS011;54011;50.772;7.730;2022-12-05T07:06:39;20.52;;;9.63;;
67092;SDS011;54011;50.772;7.730;2022-12-05T07:09:06;18.20;;;9.30;;
67092;SDS011;54011;50.772;7.730;2022-12-05T07:11:32;17.02;;;9.30;;
67092;SDS011;54011;50.772;7.730;2022-12-05T07:13:57;18.00;;;9.55;;
67092;SDS011;54011;50.772;7.730;2022-12-05T07:16:22;18.17;;;9.50;;
67092;SDS011;54011;50.772;7.730;2022-12-05T07:18:48;20.27;;;9.52;;
67092;SDS011;54011;50.772;7.730;2022-12-05T07:21:14;20.15;;;9.70;;
67092;SDS011;54011;50.772;7.730;2022-12-05T07:23:41;20.10;;;10.50;;
67092;SDS011;54011;50.772;7.730;2022-12-05T07:26:08;17.63;;;9.07;;
67092;SDS011;54011;50.772;7.730;2022-12-05T07:32:56;21.02;;;9.52;;
67092;SDS011;54011;50.772;7.730;2022-12-05T07:35:22;20.90;;;9.23;;
67092;SDS011;54011;50.772;7.730;2022-12-05T07:37:47;17.83;;;9.23;;
67092;SDS011;54011;50.772;7.730;2022-12-05T07:43:07;16.65;;;8.35;;
67092;SDS011;54011;50.772;7.730;2022-12-05T07:45:34;19.52;;;9.57;;
67092;SDS011;54011;50.772;7.730;2022-12-05T07:47:59;20.42;;;11.10;;
67092;SDS011;54011;50.772;7.730;2022-12-05T07:50:25;17.65;;;8.93;;
67092;SDS011;54011;50.772;7.730;2022-12-05T07:52:51;20.83;;;10.18;;
67092;SDS011;54011;50.772;7.730;2022-12-05T07:55:16;17.30;;;8.90;;
67092;SDS011;54011;50.772;7.730;2022-12-05T07:57:42;20.13;;;9.85;;
67092;SDS011;54011;50.772;7.730;2022-12-05T08:00:07;20.10;;;9.55;;
67092;SDS011;54011;50.772;7.730;2022-12-05T08:02:37;20.73;;;10.27;;
67092;SDS011;54011;50.772;7.730;2022-12-05T08:05:03;18.80;;;9.45;;
67092;SDS011;54011;50.772;7.730;2022-12-05T08:07:28;17.67;;;8.55;;
67092;SDS011;54011;50.772;7.730;2022-12-05T08:09:54;19.58;;;9.95;;
67092;SDS011;54011;50.772;7.730;2022-12-05T08:12:20;18.02;;;9.43;;
67092;SDS011;54011;50.772;7.730;2022-12-05T08:14:45;17.75;;;8.48;;
67092;SDS011;54011;50.772;7.730;2022-12-05T08:17:10;20.48;;;8.80;;
67092;SDS011;54011;50.772;7.730;2022-12-05T08:19:36;22.02;;;12.23;;
67092;SDS011;54011;50.772;7.730;2022-12-05T08:22:01;18.77;;;9.95;;
67092;SDS011;54011;50.772;7.730;2022-12-05T08:24:27;23.05;;;12.10;;
67092;SDS011;54011;50.772;7.730;2022-12-05T08:26:52;20.30;;;10.00;;
67092;SDS011;54011;50.772;7.730;2022-12-05T08:29:19;26.20;;;11.60;;
67092;SDS011;54011;50.772;7.730;2022-12-05T08:31:47;21.73;;;10.85;;
67092;SDS011;54011;50.772;7.730;2022-12-05T08:34:14;24.95;;;11.73;;
67092;SDS011;54011;50.772;7.730;2022-12-05T08:36:41;28.83;;;13.13;;
67092;SDS011;54011;50.772;7.730;2022-12-05T08:39:09;39.53;;;18.20;;
67092;SDS011;54011;50.772;7.730;2022-12-05T08:41:38;52.83;;;20.30;;
67092;SDS011;54011;50.772;7.730;2022-12-05T08:44:04;52.67;;;21.00;;
67092;SDS011;54011;50.772;7.730;2022-12-05T08:46:32;30.23;;;14.07;;
67092;SDS011;54011;50.772;7.730;2022-12-05T08:48:59;38.53;;;19.00;;
67092;SDS011;54011;50.772;7.730;2022-12-05T08:51:25;33.15;;;15.27;;
67092;SDS011;54011;50.772;7.730;2022-12-05T08:53:51;32.75;;;15.27;;
67092;SDS011;54011;50.772;7.730;2022-12-05T08:56:16;30.55;;;15.73;;
67092;SDS011;54011;50.772;7.730;2022-12-05T08:58:42;27.15;;;15.07;;
67092;SDS011;54011;50.772;7.730;2022-12-05T09:01:08;27.05;;;13.68;;
67092;SDS011;54011;50.772;7.730;2022-12-05T09:03:36;28.30;;;13.27;;
67092;SDS011;54011;50.772;7.730;2022-12-05T09:06:09;26.58;;;14.48;;
67092;SDS011;54011;50.772;7.730;2022-12-05T09:08:38;27.90;;;14.23;;
67092;SDS011;54011;50.772;7.730;2022-12-05T09:11:09;23.48;;;12.52;;
67092;SDS011;54011;50.772;7.730;2022-12-05T09:13:36;27.52;;;13.85;;
67092;SDS011;54011;50.772;7.730;2022-12-05T09:16:06;33.33;;;17.00;;
67092;SDS011;54011;50.772;7.730;2022-12-05T09:18:33;31.88;;;16.48;;
67092;SDS011;54011;50.772;7.730;2022-12-05T09:21:10;28.23;;;13.35;;
67092;SDS011;54011;50.772;7.730;2022-12-05T09:23:37;24.08;;;12.20;;
67092;SDS011;54011;50.772;7.730;2022-12-05T09:26:04;25.67;;;10.30;;
67092;SDS011;54011;50.772;7.730;2022-12-05T09:28:32;24.52;;;9.13;;
67092;SDS011;54011;50.772;7.730;2022-12-05T09:30:59;17.27;;;8.38;;
67092;SDS011;54011;50.772;7.730;2022-12-05T09:33:27;22.40;;;9.98;;
67092;SDS011;54011;50.772;7.730;2022-12-05T09:35:53;17.25;;;9.70;;
67092;SDS011;54011;50.772;7.730;2022-12-05T09:38:19;18.25;;;8.80;;
67092;SDS011;54011;50.772;7.730;2022-12-05T09:40:44;18.45;;;9.50;;
67092;SDS011;54011;50.772;7.730;2022-12-05T09:43:23;19.35;;;9.13;;
67092;SDS011;54011;50.772;7.730;2022-12-05T09:45:58;18.15;;;8.63;;
67092;SDS011;54011;50.772;7.730;2022-12-05T09:48:44;19.00;;;9.00;;
67092;SDS011;54011;50.772;7.730;2022-12-05T09:51:09;18.50;;;9.20;;
67092;SDS011;54011;50.772;7.730;2022-12-05T09:53:43;24.08;;;8.88;;
67092;SDS011;54011;50.772;7.730;2022-12-05T09:56:22;24.05;;;9.55;;
67092;SDS011;54011;50.772;7.730;2022-12-05T09:58:56;19.40;;;10.27;;
67092;SDS011;54011;50.772;7.730;2022-12-05T10:01:32;17.48;;;8.63;;
67092;SDS011;54011;50.772;7.730;2022-12-05T10:15:58;17.60;;;9.57;;
67092;SDS011;54011;50.772;7.730;2022-12-05T10:24:32;18.85;;;8.60;;
67092;SDS011;54011;50.772;7.730;2022-12-05T10:27:03;19.35;;;9.80;;
67092;SDS011;54011;50.772;7.730;2022-12-05T10:29:34;18.13;;;8.70;;
67092;SDS011;54011;50.772;7.730;2022-12-05T10:32:06;14.75;;;7.25;;
67092;SDS011;54011;50.772;7.730;2022-12-05T10:34:41;18.33;;;8.60;;
67092;SDS011;54011;50.772;7.730;2022-12-05T10:37:20;11.95;;;5.97;;
67092;SDS011;54011;50.772;7.730;2022-12-05T10:39:47;19.83;;;8.93;;
67092;SDS011;54011;50.772;7.730;2022-12-05T10:42:15;22.30;;;10.18;;
67092;SDS011;54011;50.772;7.730;2022-12-05T10:44:43;20.38;;;9.52;;
67092;SDS011;54011;50.772;7.730;2022-12-05T10:47:09;19.30;;;9.10;;
67092;SDS011;54011;50.772;7.730;2022-12-05T10:49:35;18.77;;;9.52;;
67092;SDS011;54011;50.772;7.730;2022-12-05T10:52:02;22.35;;;9.77;;
67092;SDS011;54011;50.772;7.730;2022-12-05T10:54:28;20.08;;;9.30;;
67092;SDS011;54011;50.772;7.730;2022-12-05T10:56:56;14.98;;;7.85;;
67092;SDS011;54011;50.772;7.730;2022-12-05T10:59:22;18.15;;;9.88;;
67092;SDS011;54011;50.772;7.730;2022-12-05T11:01:51;20.65;;;10.43;;
67092;SDS011;54011;50.772;7.730;2022-12-05T11:04:22;19.92;;;10.48;;
67092;SDS011;54011;50.772;7.730;2022-12-05T11:06:56;22.23;;;10.65;;
67092;SDS011;54011;50.772;7.730;2022-12-05T11:09:28;24.50;;;11.68;;
67092;SDS011;54011;50.772;7.730;2022-12-05T11:12:13;21.13;;;10.88;;
67092;SDS011;54011;50.772;7.730;2022-12-05T11:14:55;26.75;;;12.25;;
67092;SDS011;54011;50.772;7.730;2022-12-05T11:17:25;24.52;;;10.68;;
67092;SDS011;54011;50.772;7.730;2022-12-05T11:22:43;24.75;;;11.50;;
67092;SDS011;54011;50.772;7.730;2022-12-05T11:25:27;24.63;;;12.55;;
67092;SDS011;54011;50.772;7.730;2022-12-05T11:27:59;21.70;;;10.90;;
67092;SDS011;54011;50.772;7.730;2022-12-05T11:33:38;19.88;;;8.65;;
67092;SDS011;54011;50.772;7.730;2022-12-05T11:36:23;29.13;;;12.68;;
67092;SDS011;54011;50.772;7.730;2022-12-05T11:38:59;28.38;;;12.82;;
67092;SDS011;54011;50.772;7.730;2022-12-05T11:47:08;19.60;;;9.30;;
67092;SDS011;54011;50.772;7.730;2022-12-05T11:55:15;26.27;;;13.48;;
67092;SDS011;54011;50.772;7.730;2022-12-05T12:00:17;24.67;;;12.20;;
67092;SDS011;54011;50.772;7.730;2022-12-05T12:05:47;21.90;;;10.25;;
67092;SDS011;54011;50.772;7.730;2022-12-05T12:08:20;23.75;;;11.10;;
67092;SDS011;54011;50.772;7.730;2022-12-05T12:13:49;20.52;;;10.00;;
67092;SDS011;54011;50.772;7.730;2022-12-05T12:19:29;16.15;;;9.18;;
67092;SDS011;54011;50.772;7.730;2022-12-05T12:30:21;24.08;;;11.00;;
67092;SDS011;54011;50.772;7.730;2022-12-05T12:35:52;18.40;;;9.60;;
67092;SDS011;54011;50.772;7.730;2022-12-05T12:41:08;22.45;;;11.32;;
67092;SDS011;54011;50.772;7.730;2022-12-05T12:46:42;18.58;;;10.13;;
67092;SDS011;54011;50.772;7.730;2022-12-05T12:52:17;23.38;;;11.13;;
67092;SDS011;54011;50.772;7.730;2022-12-05T13:03:12;24.90;;;10.30;;
67092;SDS011;54011;50.772;7.730;2022-12-05T13:06:06;18.92;;;10.88;;
67092;SDS011;54011;50.772;7.730;2022-12-05T13:08:57;18.90;;;9.80;;
67092;SDS011;54011;50.772;7.730;2022-12-05T13:11:26;18.10;;;9.15;;
67092;SDS011;54011;50.772;7.730;2022-12-05T13:13:59;17.65;;;10.32;;
67092;SDS011;54011;50.772;7.730;2022-12-05T13:16:27;21.98;;;10.70;;
67092;SDS011;54011;50.772;7.730;2022-12-05T13:18:56;24.20;;;10.80;;
67092;SDS011;54011;50.772;7.730;2022-12-05T13:21:24;19.75;;;10.55;;
67092;SDS011;54011;50.772;7.730;2022-12-05T13:23:52;20.27;;;9.75;;
67092;SDS011;54011;50.772;7.730;2022-12-05T13:26:21;19.42;;;10.60;;
67092;SDS011;54011;50.772;7.730;2022-12-05T13:28:52;20.95;;;10.13;;
67092;SDS011;54011;50.772;7.730;2022-12-05T13:36:57;17.48;;;10.38;;
67092;SDS011;54011;50.772;7.730;2022-12-05T13:39:52;19.55;;;9.23;;
67092;SDS011;54011;50.772;7.730;2022-12-05T13:42:39;19.23;;;10.18;;
67092;SDS011;54011;50.772;7.730;2022-12-05T13:45:06;23.27;;;11.02;;
67092;SDS011;54011;50.772;7.730;2022-12-05T13:47:51;21.60;;;11.57;;
67092;SDS011;54011;50.772;7.730;2022-12-05T13:50:47;20.02;;;10.38;;
67092;SDS011;54011;50.772;7.730;2022-12-05T13:56:02;17.63;;;9.82;;
67092;SDS011;54011;50.772;7.730;2022-12-05T14:04:01;21.90;;;10.93;;
67092;SDS011;54011;50.772;7.730;2022-12-05T14:08:58;17.15;;;9.40;;
67092;SDS011;54011;50.772;7.730;2022-12-05T14:11:24;14.27;;;7.18;;
67092;SDS011;54011;50.772;7.730;2022-12-05T14:13:50;19.50;;;10.95;;
67092;SDS011;54011;50.772;7.730;2022-12-05T14:19:11;21.20;;;11.40;;
67092;SDS011;54011;50.772;7.730;2022-12-05T14:21:58;18.73;;;10.88;;
67092;SDS011;54011;50.772;7.730;2022-12-05T14:27:24;22.65;;;11.30;;
67092;SDS011;54011;50.772;7.730;2022-12-05T14:32:46;20.88;;;11.10;;
67092;SDS011;54011;50.772;7.730;2022-12-05T14:35:15;25.23;;;14.48;;
67092;SDS011;54011;50.772;7.730;2022-12-05T14:38:01;28.05;;;13.98;;
67092;SDS011;54011;50.772;7.730;2022-12-05T14:42:56;20.15;;;10.55;;
67092;SDS011;54011;50.772;7.730;2022-12-05T14:45:32;22.08;;;12.77;;
67092;SDS011;54011;50.772;7.730;2022-12-05T14:50:46;19.15;;;10.95;;
67092;SDS011;54011;50.772;7.730;2022-12-05T14:55:48;20.83;;;11.30;;
67092;SDS011;54011;50.772;7.730;2022-12-05T15:00:56;22.92;;;12.88;;
67092;SDS011;54011;50.772;7.730;2022-12-05T15:03:28;24.40;;;13.38;;
67092;SDS011;54011;50.772;7.730;2022-12-05T15:05:56;20.08;;;11.02;;
67092;SDS011;54011;50.772;7.730;2022-12-05T15:08:25;18.92;;;10.55;;
67092;SDS011;54011;50.772;7.730;2022-12-05T15:10:54;23.27;;;12.55;;
67092;SDS011;54011;50.772;7.730;2022-12-05T15:13:23;22.67;;;12.45;;
67092;SDS011;54011;50.772;7.730;2022-12-05T15:16:35;24.23;;;12.77;;
67092;SDS011;54011;50.772;7.730;2022-12-05T15:21:21;15.23;;;8.45;;
67092;SDS011;54011;50.772;7.730;2022-12-05T15:26:24;18.55;;;9.82;;
67092;SDS011;54011;50.772;7.730;2022-12-05T15:31:36;15.65;;;9.32;;
67092;SDS011;54011;50.772;7.730;2022-12-05T15:39:55;11.73;;;7.05;;
67092;SDS011;54011;50.772;7.730;2022-12-05T15:42:23;13.05;;;7.47;;
67092;SDS011;54011;50.772;7.730;2022-12-05T15:44:53;13.13;;;7.43;;
67092;SDS011;54011;50.772;7.730;2022-12-05T15:47:36;12.40;;;7.65;;
67092;SDS011;54011;50.772;7.730;2022-12-05T15:50:03;12.45;;;7.35;;
67092;SDS011;54011;50.772;7.730;2022-12-05T15:52:36;11.90;;;6.93;;
67092;SDS011;54011;50.772;7.730;2022-12-05T15:55:11;10.05;;;5.85;;
67092;SDS011;54011;50.772;7.730;2022-12-05T15:57:41;12.07;;;5.77;;
67092;SDS011;54011;50.772;7.730;2022-12-05T16:00:14;10.68;;;6.43;;
67092;SDS011;54011;50.772;7.730;2022-12-05T16:02:45;12.10;;;7.10;;
67092;SDS011;54011;50.772;7.730;2022-12-05T16:05:18;12.38;;;6.97;;
67092;SDS011;54011;50.772;7.730;2022-12-05T16:07:48;13.10;;;7.30;;
67092;SDS011;54011;50.772;7.730;2022-12-05T16:10:15;16.98;;;7.88;;
67092;SDS011;54011;50.772;7.730;2022-12-05T16:12:44;11.65;;;7.20;;
67092;SDS011;54011;50.772;7.730;2022-12-05T16:15:20;16.55;;;7.22;;
67092;SDS011;54011;50.772;7.730;2022-12-05T16:17:55;10.88;;;6.43;;
67092;SDS011;54011;50.772;7.730;2022-12-05T16:20:27;13.70;;;7.47;;
67092;SDS011;54011;50.772;7.730;2022-12-05T16:22:53;13.18;;;7.03;;
67092;SDS011;54011;50.772;7.730;2022-12-05T16:25:23;12.38;;;6.65;;
67092;SDS011;54011;50.772;7.730;2022-12-05T16:28:01;12.48;;;6.90;;
67092;SDS011;54011;50.772;7.730;2022-12-05T16:30:34;9.35;;;5.28;;
67092;SDS011;54011;50.772;7.730;2022-12-05T16:35:32;12.57;;;6.38;;
67092;SDS011;54011;50.772;7.730;2022-12-05T16:40:49;14.85;;;8.23;;
67092;SDS011;54011;50.772;7.730;2022-12-05T16:45:49;14.27;;;8.45;;
67092;SDS011;54011;50.772;7.730;2022-12-05T16:48:20;15.15;;;9.13;;
67092;SDS011;54011;50.772;7.730;2022-12-05T16:50:45;21.52;;;12.07;;
67092;SDS011;54011;50.772;7.730;2022-12-05T16:53:26;13.00;;;7.60;;
67092;SDS011;54011;50.772;7.730;2022-12-05T16:55:56;17.42;;;9.80;;
67092;SDS011;54011;50.772;7.730;2022-12-05T16:58:23;17.63;;;9.18;;
67092;SDS011;54011;50.772;7.730;2022-12-05T17:00:50;17.35;;;10.20;;
67092;SDS011;54011;50.772;7.730;2022-12-05T17:03:17;15.85;;;9.00;;
67092;SDS011;54011;50.772;7.730;2022-12-05T17:05:43;14.18;;;8.05;;
67092;SDS011;54011;50.772;7.730;2022-12-05T17:08:08;13.07;;;7.38;;
67092;SDS011;54011;50.772;7.730;2022-12-05T17:10:41;12.13;;;7.47;;
67092;SDS011;54011;50.772;7.730;2022-12-05T17:13:08;12.02;;;5.70;;
67092;SDS011;54011;50.772;7.730;2022-12-05T17:15:34;13.98;;;7.32;;
67092;SDS011;54011;50.772;7.730;2022-12-05T17:18:00;13.98;;;7.85;;
67092;SDS011;54011;50.772;7.730;2022-12-05T17:20:26;13.35;;;7.85;;
67092;SDS011;54011;50.772;7.730;2022-12-05T17:22:51;16.02;;;7.55;;
67092;SDS011;54011;50.772;7.730;2022-12-05T17:25:19;14.20;;;7.82;;
67092;SDS011;54011;50.772;7.730;2022-12-05T17:27:53;13.93;;;7.40;;
67092;SDS011;54011;50.772;7.730;2022-12-05T17:30:18;13.43;;;7.95;;
67092;SDS011;54011;50.772;7.730;2022-12-05T17:32:43;13.75;;;7.97;;
67092;SDS011;54011;50.772;7.730;2022-12-05T17:35:13;12.88;;;8.02;;
67092;SDS011;54011;50.772;7.730;2022-12-05T17:37:41;13.82;;;7.32;;
67092;SDS011;54011;50.772;7.730;2022-12-05T17:40:06;13.23;;;7.65;;
67092;SDS011;54011;50.772;7.730;2022-12-05T17:42:32;14.93;;;8.50;;
67092;SDS011;54011;50.772;7.730;2022-12-05T17:44:57;14.25;;;7.35;;
67092;SDS011;54011;50.772;7.730;2022-12-05T17:47:23;15.77;;;8.65;;
67092;SDS011;54011;50.772;7.730;2022-12-05T17:49:48;11.05;;;6.43;;
67092;SDS011;54011;50.772;7.730;2022-12-05T17:52:14;14.15;;;7.53;;
67092;SDS011;54011;50.772;7.730;2022-12-05T17:54:40;19.58;;;9.52;;